Time;durP1;ratioP1;P1;durP2;ratioP2;P2;SDS_P1;SDS_P2;PMS_P1;PMS_P2;Temp;Humidity;BMP_temperature;BMP_pressure;BME280_temperature;BME280_humidity;BME280_pressure;Samples;Min_cycle;Max_cycle;Signal;HPM_P1;HPM_P2
2022/05/31 00:02:21;;;;;;;1.90;1.80;;;13.50;83.00;;;14.05;nan;100309.75;5004145;28;20637;-65
2022/05/31 00:04:49;;;;;;;1.60;1.50;;;13.50;83.30;;;14.04;nan;100314.16;4986282;28;20638;-69
2022/05/31 00:07:17;;;;;;;2.30;1.70;;;13.50;83.80;;;14.03;nan;100307.25;5006115;28;21087;-67
2022/05/31 00:09:46;;;;;;;1.50;1.50;;;13.50;84.10;;;13.98;nan;100302.44;4975369;28;20626;-67
2022/05/31 00:12:14;;;;;;;2.73;2.17;;;13.50;84.70;;;13.91;nan;100298.69;5008453;28;21484;-67
2022/05/31 00:14:41;;;;;;;2.17;2.07;;;13.40;85.20;;;13.81;nan;100295.25;4974129;28;20681;-67
2022/05/31 00:17:08;;;;;;;1.90;1.77;;;13.30;86.10;;;13.75;nan;100297.59;4991458;28;20666;-67
2022/05/31 00:19:36;;;;;;;2.87;1.97;;;13.20;87.00;;;13.75;nan;100302.84;5025431;28;20635;-71
2022/05/31 00:22:17;;;;;;;1.47;1.47;;;13.20;87.50;;;13.74;nan;100301.19;5010376;28;21208;-68
2022/05/31 00:24:44;;;;;;;1.80;1.70;;;13.30;88.10;;;13.64;nan;100301.19;4991018;28;20631;-67
2022/05/31 00:27:16;;;;;;;2.50;1.93;;;13.10;89.00;;;13.67;nan;100302.72;4974811;28;20650;-65
2022/05/31 00:29:45;;;;;;;1.63;1.53;;;13.20;89.50;;;13.68;nan;100296.50;5014582;28;20633;-67
2022/05/31 00:32:15;;;;;;;1.97;1.87;;;13.20;89.70;;;13.61;nan;100296.22;5007798;28;20641;-67
2022/05/31 00:34:47;;;;;;;1.90;1.80;;;13.10;90.20;;;13.63;nan;100296.09;5010098;28;20668;-67
2022/05/31 00:37:14;;;;;;;2.17;2.07;;;13.10;90.30;;;13.68;nan;100291.25;4981585;28;20670;-70
2022/05/31 00:39:42;;;;;;;2.20;2.00;;;13.20;90.50;;;13.72;nan;100297.88;5009859;28;20644;-68
2022/05/31 00:42:15;;;;;;;2.00;1.90;;;13.30;90.50;;;13.78;nan;100295.53;5007625;28;20633;-67
2022/05/31 00:44:41;;;;;;;2.10;2.00;;;13.30;90.70;;;13.65;nan;100296.78;4993518;28;20621;-67
2022/05/31 00:47:28;;;;;;;2.70;2.50;;;13.10;91.00;;;13.60;nan;100294.56;5010029;28;20657;-67
2022/05/31 00:50:03;;;;;;;2.10;2.00;;;13.10;91.40;;;13.63;nan;100299.53;4993806;28;21005;-67
2022/05/31 00:52:36;;;;;;;1.90;1.80;;;13.20;91.50;;;13.57;nan;100294.00;4983902;28;21010;-67
2022/05/31 00:55:13;;;;;;;2.10;2.00;;;13.10;91.90;;;13.53;nan;100297.88;5006480;28;20678;-68
2022/05/31 00:58:09;;;;;;;3.23;1.80;;;13.00;92.30;;;13.49;nan;100301.72;4986821;28;20711;-67
2022/05/31 01:00:37;;;;;;;2.23;2.03;;;13.00;93.00;;;13.43;nan;100297.88;4997579;28;20633;-68
2022/05/31 01:03:05;;;;;;;2.30;2.10;;;13.00;93.50;;;13.40;nan;100297.31;4990116;28;20638;-66
2022/05/31 01:05:34;;;;;;;3.07;2.53;;;12.90;93.90;;;13.31;nan;100303.38;4978040;28;21113;-68
2022/05/31 01:08:02;;;;;;;2.80;2.60;;;12.80;94.50;;;13.29;nan;100306.09;4991557;28;20657;-68
2022/05/31 01:10:29;;;;;;;2.27;2.17;;;12.80;94.90;;;13.17;nan;100305.41;5001521;28;20656;-70
2022/05/31 01:12:57;;;;;;;2.70;2.50;;;12.80;95.40;;;13.04;nan;100310.06;5010782;28;20637;-67
2022/05/31 01:15:24;;;;;;;3.30;2.53;;;12.60;96.10;;;13.08;nan;100303.59;4991602;28;20723;-67
2022/05/31 01:17:51;;;;;;;2.43;2.27;;;12.60;96.50;;;13.00;nan;100297.34;5008555;28;20669;-70
2022/05/31 01:20:21;;;;;;;2.20;2.10;;;12.60;96.90;;;12.95;nan;100305.59;5008854;28;20625;-67
2022/05/31 01:23:25;;;;;;;2.57;2.40;;;12.50;97.30;;;12.81;nan;100308.59;5001996;28;20642;-65
2022/05/31 01:26:18;;;;;;;2.13;2.03;;;12.40;98.00;;;12.74;nan;100311.84;5000812;28;20652;-67
2022/05/31 01:29:06;;;;;;;2.70;2.50;;;12.30;98.70;;;12.82;nan;100307.59;4979080;28;20642;-67
2022/05/31 01:31:44;;;;;;;3.30;2.60;;;12.40;98.70;;;12.71;nan;100315.56;4990050;28;20648;-67
2022/05/31 01:34:25;;;;;;;2.63;2.30;;;12.30;99.10;;;12.58;nan;100319.34;5001232;28;20653;-67
2022/05/31 01:36:56;;;;;;;3.40;3.10;;;12.20;99.80;;;12.43;nan;100317.09;4991774;28;20685;-67
2022/05/31 01:39:35;;;;;;;2.40;2.30;;;12.00;99.90;;;12.42;nan;100311.97;5010922;28;21248;-66
2022/05/31 01:42:18;;;;;;;2.80;2.50;;;12.00;99.90;;;12.23;nan;100307.47;5010654;28;20624;-68
2022/05/31 01:44:51;;;;;;;2.97;2.70;;;11.90;99.90;;;12.22;nan;100311.03;4994809;28;20621;-67
2022/05/31 01:47:19;;;;;;;3.43;2.90;;;11.80;99.90;;;12.24;nan;100306.50;4993310;28;20668;-67
2022/05/31 01:49:50;;;;;;;3.63;3.03;;;11.80;99.90;;;12.17;nan;100304.53;5013110;28;20626;-66
2022/05/31 01:52:17;;;;;;;3.37;3.00;;;11.70;99.90;;;12.09;nan;100301.72;4995072;28;20621;-65
2022/05/31 01:54:46;;;;;;;2.70;2.50;;;11.70;99.90;;;12.12;nan;100296.22;5008022;28;20644;-66
2022/05/31 01:57:15;;;;;;;4.60;3.43;;;11.70;99.90;;;12.09;nan;100291.28;4997044;28;21240;-66
2022/05/31 01:59:53;;;;;;;4.63;2.70;;;11.70;99.90;;;12.14;nan;100296.91;4995330;28;20645;-68
2022/05/31 02:02:21;;;;;;;4.00;2.90;;;11.80;99.90;;;12.08;nan;100300.06;4993958;28;20609;-68
2022/05/31 02:04:48;;;;;;;2.23;2.13;;;11.70;99.90;;;12.10;nan;100303.38;5008784;28;20642;-69
2022/05/31 02:07:20;;;;;;;3.53;2.80;;;11.70;99.90;;;12.17;nan;100297.53;4993365;28;20662;-68
2022/05/31 02:09:50;;;;;;;3.00;2.80;;;11.70;99.90;;;12.12;nan;100286.59;5009136;28;20732;-67
2022/05/31 02:12:25;;;;;;;2.90;2.70;;;11.70;99.90;;;12.12;nan;100297.06;5003175;28;20671;-68
2022/05/31 02:14:52;;;;;;;3.87;3.50;;;11.70;99.90;;;12.23;nan;100296.16;4995997;28;20617;-66
2022/05/31 02:17:21;;;;;;;6.30;2.93;;;11.90;99.90;;;12.18;nan;100293.13;5003859;28;21007;-67
2022/05/31 02:19:48;;;;;;;2.80;2.70;;;11.90;99.90;;;12.09;nan;100292.09;4988168;28;21056;-67
2022/05/31 02:22:22;;;;;;;3.27;2.97;;;11.70;99.90;;;12.02;nan;100284.88;4992589;28;20632;-66
2022/05/31 02:24:49;;;;;;;3.10;2.80;;;11.70;99.90;;;12.04;nan;100282.97;5005367;28;20710;-67
2022/05/31 02:27:17;;;;;;;3.30;3.00;;;11.60;99.90;;;11.98;nan;100279.09;5013982;28;21064;-65
2022/05/31 02:29:44;;;;;;;3.70;3.07;;;11.60;99.90;;;12.02;nan;100283.09;5003544;28;20637;-68
2022/05/31 02:32:14;;;;;;;3.40;3.10;;;11.60;99.90;;;12.09;nan;100283.41;5012351;28;20621;-68
2022/05/31 02:34:47;;;;;;;3.77;3.10;;;11.70;99.90;;;12.03;nan;100286.56;4993615;28;20641;-67
2022/05/31 02:37:16;;;;;;;3.00;2.80;;;11.60;99.90;;;11.99;nan;100283.34;5011687;28;21269;-67
2022/05/31 02:39:43;;;;;;;2.53;2.33;;;11.60;99.90;;;11.99;nan;100285.97;5005901;28;20695;-69
2022/05/31 02:42:12;;;;;;;5.20;2.63;;;11.50;99.90;;;11.96;nan;100282.78;4994669;28;20609;-68
2022/05/31 02:44:40;;;;;;;2.77;2.53;;;11.50;99.90;;;11.98;nan;100281.69;5009730;28;20990;-69
2022/05/31 02:47:08;;;;;;;2.90;2.70;;;11.60;99.90;;;11.97;nan;100274.00;5012015;28;20679;-67
2022/05/31 02:49:37;;;;;;;3.70;2.67;;;11.50;99.90;;;11.98;nan;100273.03;4993491;28;20625;-68
2022/05/31 02:52:05;;;;;;;3.20;2.90;;;11.50;99.90;;;12.01;nan;100278.00;5012757;28;21188;-66
2022/05/31 02:54:32;;;;;;;3.27;2.93;;;11.60;99.90;;;11.98;nan;100278.25;4989376;28;21054;-68
2022/05/31 02:56:59;;;;;;;2.70;2.50;;;11.60;99.90;;;11.98;nan;100283.47;4995407;28;20681;-69
2022/05/31 02:59:26;;;;;;;3.37;3.07;;;11.50;99.90;;;11.92;nan;100271.75;5001678;28;20626;-67
2022/05/31 03:01:53;;;;;;;4.43;3.00;;;11.50;99.90;;;11.90;nan;100271.06;5011868;28;20692;-67
2022/05/31 03:04:20;;;;;;;3.63;2.90;;;11.50;99.90;;;11.86;nan;100274.84;5010405;28;21205;-65
2022/05/31 03:06:48;;;;;;;3.00;2.80;;;11.40;99.90;;;11.79;nan;100268.50;5012105;28;20669;-67
2022/05/31 03:09:15;;;;;;;2.77;2.57;;;11.30;99.90;;;11.73;nan;100269.00;4994187;28;20633;-66
2022/05/31 03:12:01;;;;;;;3.10;2.80;;;11.30;99.90;;;11.68;nan;100263.31;5011138;28;20649;-67
2022/05/31 03:14:52;;;;;;;2.70;2.50;;;11.30;99.90;;;11.54;nan;100264.41;4994261;28;21026;-67
2022/05/31 03:17:27;;;;;;;3.10;2.40;;;11.20;99.90;;;11.56;nan;100261.69;5010570;28;20680;-67
2022/05/31 03:20:07;;;;;;;3.03;2.43;;;11.10;99.90;;;11.63;nan;100257.59;5006937;28;20728;-66
2022/05/31 03:22:55;;;;;;;2.77;2.50;;;11.20;99.90;;;11.62;nan;100256.78;5011055;28;20625;-68
2022/05/31 03:25:26;;;;;;;3.20;2.90;;;11.30;99.90;;;11.57;nan;100250.25;4989818;28;20686;-66
2022/05/31 03:27:58;;;;;;;2.80;2.60;;;11.20;99.90;;;11.56;nan;100251.25;5025313;28;20657;-67
2022/05/31 03:30:25;;;;;;;2.57;2.37;;;11.20;99.90;;;11.60;nan;100247.41;4988127;28;21017;-67
2022/05/31 03:32:55;;;;;;;3.20;2.90;;;11.20;99.90;;;11.67;nan;100249.41;5012557;28;21177;-67
2022/05/31 03:35:22;;;;;;;3.60;2.80;;;11.30;99.90;;;11.62;nan;100250.72;5006220;28;20630;-66
2022/05/31 03:37:49;;;;;;;4.00;2.70;;;11.20;99.90;;;11.66;nan;100249.53;4992436;28;20672;-67
2022/05/31 03:43:04;;;;;;;2.70;2.50;;;11.30;99.90;;;11.79;nan;100249.38;5010660;28;20648;-69
2022/05/31 03:45:37;;;;;;;2.50;2.30;;;11.40;99.90;;;11.81;nan;100256.13;4992224;28;20611;-69
2022/05/31 03:48:05;;;;;;;3.00;2.80;;;11.40;99.90;;;11.88;nan;100243.38;4981827;28;20666;-68
2022/05/31 03:50:33;;;;;;;3.03;2.83;;;11.50;99.90;;;11.93;nan;100239.41;5000052;28;20644;-70
2022/05/31 03:53:01;;;;;;;6.80;2.63;;;11.60;99.90;;;12.06;nan;100241.81;5010551;28;20676;-68
2022/05/31 03:55:28;;;;;;;5.33;3.00;;;11.60;99.90;;;12.05;nan;100246.22;4987234;28;21004;-67
2022/05/31 03:57:55;;;;;;;3.50;3.00;;;11.70;99.90;;;11.97;nan;100240.81;5003415;28;20669;-68
2022/05/31 04:00:23;;;;;;;3.60;3.30;;;11.60;99.90;;;12.05;nan;100243.59;5007076;28;20629;-68
2022/05/31 04:02:50;;;;;;;3.80;3.30;;;11.70;99.90;;;12.30;nan;100234.53;4992036;28;20839;-67
2022/05/31 04:05:17;;;;;;;3.30;3.00;;;12.00;99.90;;;12.52;nan;100234.38;4992543;28;20625;-68
2022/05/31 04:07:44;;;;;;;3.67;3.20;;;12.20;99.90;;;12.74;nan;100225.44;4973137;28;20642;-68
2022/05/31 04:10:11;;;;;;;3.33;2.90;;;12.40;99.90;;;12.79;nan;100228.50;5005228;28;21164;-68
2022/05/31 04:12:39;;;;;;;2.37;2.17;;;12.50;99.90;;;12.85;nan;100230.59;5005938;28;20637;-68
2022/05/31 04:15:06;;;;;;;6.77;2.90;;;12.50;99.90;;;12.81;nan;100231.81;4989419;28;20667;-68
2022/05/31 04:17:33;;;;;;;3.20;2.90;;;12.40;99.90;;;12.67;nan;100229.59;5021339;23;20703;-66
2022/05/31 04:20:00;;;;;;;2.60;2.40;;;12.30;99.90;;;12.59;nan;100232.84;5033185;28;20690;-67
2022/05/31 04:22:28;;;;;;;2.63;2.30;;;12.20;99.90;;;12.59;nan;100237.25;5049685;28;21226;-67
2022/05/31 04:25:00;;;;;;;2.90;2.70;;;12.20;99.90;;;12.68;nan;100231.22;5050504;28;20686;-65
2022/05/31 04:27:30;;;;;;;2.87;2.67;;;12.20;99.90;;;12.94;nan;100237.66;5050835;28;20654;-65
2022/05/31 04:29:57;;;;;;;3.93;2.40;;;12.50;99.90;;;13.28;nan;100238.97;5041671;28;20643;-65
2022/05/31 04:32:24;;;;;;;3.00;2.70;;;12.90;99.90;;;13.71;nan;100233.31;5047448;28;20635;-67
2022/05/31 04:34:52;;;;;;;3.40;2.63;;;13.40;99.90;;;14.13;nan;100241.66;5044961;28;20628;-67
2022/05/31 04:37:20;;;;;;;3.60;3.10;;;13.90;99.90;;;14.53;nan;100242.22;5028939;28;20680;-67
2022/05/31 04:39:47;;;;;;;2.17;2.00;;;14.30;99.20;;;14.90;nan;100240.41;5011824;28;20651;-67
2022/05/31 04:42:19;;;;;;;3.13;2.83;;;14.70;98.60;;;15.17;nan;100239.53;5028721;28;20616;-65
2022/05/31 04:44:46;;;;;;;2.57;2.37;;;15.00;97.50;;;15.32;nan;100243.28;5033956;28;20641;-67
2022/05/31 04:47:13;;;;;;;3.63;2.93;;;15.10;96.80;;;15.12;nan;100239.97;5032455;28;20659;-65
2022/05/31 04:49:40;;;;;;;2.67;2.47;;;14.90;96.80;;;15.02;nan;100233.13;5023062;28;20639;-66
2022/05/31 04:52:07;;;;;;;2.50;2.40;;;14.70;97.10;;;14.81;nan;100224.69;5048826;28;20635;-65
2022/05/31 04:54:34;;;;;;;3.30;3.00;;;14.50;97.60;;;14.66;nan;100237.47;5049531;28;20627;-66
2022/05/31 04:57:01;;;;;;;4.47;3.27;;;14.20;98.40;;;14.64;nan;100235.00;5035095;28;20668;-66
2022/05/31 04:59:28;;;;;;;5.00;2.90;;;14.20;98.40;;;14.74;nan;100241.03;5029331;28;21038;-68
2022/05/31 05:01:55;;;;;;;8.60;2.50;;;14.40;98.00;;;14.72;nan;100239.50;5029461;28;21017;-65
2022/05/31 05:04:22;;;;;;;5.80;3.60;;;14.30;98.00;;;14.77;nan;100237.28;5031764;28;20632;-67
2022/05/31 05:06:49;;;;;;;3.60;3.30;;;14.40;98.20;;;14.79;nan;100232.72;5020788;28;20635;-65
2022/05/31 05:09:16;;;;;;;4.20;3.33;;;14.50;97.90;;;14.67;nan;100228.63;5012728;28;20639;-65
2022/05/31 05:11:47;;;;;;;4.17;3.50;;;14.30;97.80;;;14.68;nan;100214.53;5044749;28;20631;-65
2022/05/31 05:14:14;;;;;;;9.60;3.60;;;14.30;98.20;;;14.86;nan;100227.69;5048548;28;20631;-65
2022/05/31 05:16:41;;;;;;;3.00;2.70;;;14.60;97.50;;;15.17;nan;100232.47;5049394;28;21099;-65
2022/05/31 05:19:13;;;;;;;8.40;3.20;;;14.90;96.70;;;15.25;nan;100239.59;5023428;28;20698;-65
2022/05/31 05:21:40;;;;;;;5.73;3.50;;;14.90;96.70;;;15.41;nan;100240.59;5028640;28;20975;-65
2022/05/31 05:24:07;;;;;;;3.97;3.17;;;15.10;96.40;;;15.89;nan;100247.25;5029438;28;20640;-67
2022/05/31 05:26:35;;;;;;;3.13;2.90;;;15.60;95.80;;;16.33;nan;100240.97;5048905;28;20697;-65
2022/05/31 05:31:53;;;;;;;4.60;3.37;;;16.20;94.10;;;16.07;nan;100251.50;5029127;28;20608;-66
2022/05/31 05:34:20;;;;;;;7.73;3.50;;;15.90;93.90;;;16.02;nan;100242.41;5038098;28;20629;-66
2022/05/31 05:36:47;;;;;;;6.73;3.50;;;15.80;94.20;;;15.88;nan;100233.28;5049379;28;20664;-65
2022/05/31 05:39:13;;;;;;;3.10;2.90;;;15.50;94.70;;;15.71;nan;100238.56;5029120;28;20639;-66
2022/05/31 05:41:41;;;;;;;3.57;3.27;;;15.40;94.80;;;15.45;nan;100241.16;5050106;28;20623;-66
2022/05/31 05:44:09;;;;;;;3.70;2.60;;;15.10;95.10;;;15.44;nan;100235.06;5045372;28;20643;-66
2022/05/31 05:46:36;;;;;;;2.87;2.67;;;15.00;95.40;;;15.68;nan;100236.22;5029341;28;20627;-65
2022/05/31 05:49:03;;;;;;;3.07;2.87;;;15.20;95.20;;;15.80;nan;100227.94;5028776;28;20668;-65
2022/05/31 05:51:33;;;;;;;3.20;2.90;;;15.40;95.10;;;16.06;nan;100226.16;5030342;28;20620;-65
2022/05/31 05:54:03;;;;;;;3.97;3.03;;;15.70;94.40;;;16.57;nan;100222.69;5028465;28;20635;-66
2022/05/31 05:56:30;;;;;;;3.47;2.93;;;16.20;94.10;;;17.21;nan;100224.69;5031664;28;20694;-65
2022/05/31 05:58:57;;;;;;;5.37;3.60;;;16.90;93.10;;;17.84;nan;100235.47;5047054;28;20668;-66
2022/05/31 06:02:01;;;;;;;2.73;2.53;;;17.70;91.50;;;18.68;nan;100238.41;5049862;28;20677;-65
2022/05/31 06:05:08;;;;;;;3.60;2.87;;;18.30;90.60;;;19.63;nan;100242.50;5019814;28;20636;-66
2022/05/31 06:07:45;;;;;;;3.63;3.33;;;19.50;88.00;;;20.04;nan;100246.44;5012357;28;20655;-66
2022/05/31 06:10:21;;;;;;;;;;;19.90;83.90;;;20.95;nan;100249.59;5032645;28;20479;-67
2022/05/31 06:13:21;;;;;;;2.83;2.63;;;20.70;81.50;;;21.80;nan;100245.16;5028752;28;20226;-66
2022/05/31 06:15:53;;;;;;;4.32;3.08;;;21.70;77.40;;;22.99;nan;100251.06;5025350;28;24450;-65
2022/05/31 06:18:29;;;;;;;3.20;2.90;;;22.80;73.50;;;23.77;nan;100252.25;5048096;28;24463;-66
2022/05/31 06:21:02;;;;;;;5.40;2.95;;;23.70;68.90;;;23.91;nan;100248.59;5031362;28;25007;-65
2022/05/31 06:23:29;;;;;;;4.70;3.30;;;23.80;66.60;;;24.07;nan;100250.84;5052110;28;24443;-64
2022/05/31 06:25:57;;;;;;;4.05;3.13;;;24.00;66.60;;;23.76;nan;100253.28;5031529;28;25145;-64
2022/05/31 06:28:24;;;;;;;3.85;3.30;;;23.70;64.90;;;23.21;nan;100253.59;5051033;28;24447;-67
2022/05/31 06:30:51;;;;;;;3.30;3.00;;;23.20;65.60;;;22.35;nan;100252.34;5039747;28;24440;-63
2022/05/31 06:33:18;;;;;;;7.38;3.30;;;22.20;66.50;;;21.91;nan;100246.50;5045957;28;24454;-67
2022/05/31 06:35:45;;;;;;;6.07;3.03;;;21.70;68.10;;;21.46;nan;100251.19;5045363;28;24450;-66
2022/05/31 06:38:16;;;;;;;6.18;3.20;;;21.30;69.20;;;21.42;nan;100255.22;5048853;28;24981;-68
2022/05/31 06:40:43;;;;;;;4.93;2.90;;;21.30;69.40;;;21.23;nan;100247.88;5041263;28;24447;-65
2022/05/31 06:43:11;;;;;;;7.28;3.08;;;21.00;70.00;;;22.40;nan;100253.38;5033205;28;24451;-66
2022/05/31 06:45:44;;;;;;;4.20;2.80;;;22.10;68.80;;;23.58;nan;100259.22;5030489;28;24511;-65
2022/05/31 06:48:11;;;;;;;4.25;3.10;;;23.40;65.20;;;25.04;nan;100264.97;5030369;28;24456;-67
2022/05/31 06:50:38;;;;;;;5.05;3.00;;;24.90;62.60;;;25.59;nan;100247.41;5044838;28;24455;-66
2022/05/31 06:58:42;;;;;;;3.23;2.93;;;24.90;59.80;;;25.65;nan;100248.41;5047975;28;20660;-67
2022/05/31 07:01:09;;;;;;;3.10;2.47;;;25.20;59.10;;;27.39;nan;100248.59;5051681;28;20631;-66
2022/05/31 07:03:36;;;;;;;2.83;2.63;;;26.80;57.30;;;29.20;nan;100240.41;5050339;28;20631;-66
2022/05/31 07:06:03;;;;;;;;;;;28.90;53.90;;;31.05;nan;100241.59;5047118;28;20479;-66
2022/05/31 07:08:30;;;;;;;3.60;2.60;;;30.70;50.40;;;32.65;nan;100250.19;5050999;28;20218;-67
2022/05/31 07:10:59;;;;;;;2.53;2.43;;;32.40;48.00;;;33.76;nan;100255.06;5050202;28;21103;-67
2022/05/31 07:13:26;;;;;;;4.03;2.73;;;33.60;45.70;;;33.92;nan;100249.38;5051332;28;21219;-66
2022/05/31 07:15:53;;;;;;;2.80;2.60;;;33.60;44.70;;;34.85;nan;100242.38;5051001;28;20632;-65
2022/05/31 07:18:40;;;;;;;3.47;3.27;;;34.60;43.60;;;35.29;nan;100242.41;5038913;28;20667;-68
2022/05/31 07:21:08;;;;;;;3.27;2.80;;;35.00;42.70;;;35.76;nan;100245.31;5022236;28;20635;-69
2022/05/31 07:23:34;;;;;;;3.10;2.90;;;35.40;42.20;;;36.45;nan;100244.13;5049113;28;20632;-65
2022/05/31 07:26:04;;;;;;;2.80;2.30;;;36.10;41.00;;;36.65;nan;100238.44;5047558;28;20646;-67
2022/05/31 07:28:51;;;;;;;5.10;2.50;;;36.40;40.20;;;37.05;nan;100231.69;5050430;28;20674;-65
2022/05/31 07:31:19;;;;;;;2.87;2.67;;;36.80;39.80;;;36.93;nan;100234.03;5052103;28;20635;-66
2022/05/31 07:33:47;;;;;;;2.80;2.60;;;36.80;39.40;;;36.18;nan;100228.38;5046755;28;20637;-68
2022/05/31 07:36:14;;;;;;;2.60;2.40;;;36.00;39.90;;;34.66;nan;100221.59;5034291;28;20654;-67
2022/05/31 07:38:41;;;;;;;3.57;3.17;;;34.40;40.80;;;34.22;nan;100227.66;5044109;28;20671;-66
2022/05/31 07:41:09;;;;;;;3.23;2.90;;;33.90;41.30;;;32.65;nan;100230.44;5048055;28;20623;-67
2022/05/31 07:43:36;;;;;;;2.63;2.47;;;32.50;41.40;;;30.96;nan;100229.66;5031271;28;20621;-66
2022/05/31 07:46:10;;;;;;;2.90;2.70;;;30.70;42.80;;;29.64;nan;100226.13;5031271;28;20863;-67
2022/05/31 07:48:38;;;;;;;2.57;2.37;;;29.30;44.40;;;;;;5049222;28;20721;-66
2022/05/31 07:51:06;;;;;;;2.40;2.30;;;27.90;45.40;;;;;;5047136;28;20641;-66
2022/05/31 07:53:33;;;;;;;2.27;2.17;;;27.00;46.40;;;;;;5047647;28;20966;-66
2022/05/31 07:56:09;;;;;;;2.50;2.40;;;27.40;46.90;;;;;;5013137;28;21178;-66
2022/05/31 07:58:39;;;;;;;2.50;2.40;;;27.60;47.50;;;;;;5030992;28;20674;-67
2022/05/31 08:01:08;;;;;;;2.37;2.20;;;27.50;48.20;;;;;;5050786;28;20680;-65
2022/05/31 08:03:37;;;;;;;3.57;2.50;;;29.00;47.20;;;;;;5049866;28;21177;-66
2022/05/31 08:06:09;;;;;;;3.17;2.30;;;31.10;44.90;;;;;;5050645;28;20706;-67
2022/05/31 08:08:37;;;;;;;2.60;2.40;;;32.30;43.10;;;;;;5051635;28;20723;-66
2022/05/31 08:11:10;;;;;;;3.70;2.60;;;32.80;42.30;;;;;;5035818;28;20655;-66
2022/05/31 08:13:38;;;;;;;2.70;2.47;;;33.30;41.50;;;;;;5032343;28;20703;-66
2022/05/31 08:16:07;;;;;;;1.77;1.60;;;33.50;40.90;;;;;;5029959;28;20647;-66
2022/05/31 08:18:34;;;;;;;2.23;2.13;;;34.00;40.40;;;;;;5046689;28;20782;-66
2022/05/31 08:21:07;;;;;;;3.97;2.00;;;35.30;39.80;;;;;;5049449;28;20662;-66
2022/05/31 08:23:35;;;;;;;2.40;2.30;;;36.10;38.40;;;;;;5050770;28;20612;-66
2022/05/31 08:26:01;;;;;;;3.90;1.97;;;36.60;37.60;;;;;;5038965;28;20640;-68
2022/05/31 08:28:29;;;;;;;2.77;2.60;;;37.40;37.50;;;;;;5030101;28;20743;-67
2022/05/31 08:31:02;;;;;;;2.30;2.20;;;38.20;36.50;;;;;;5030140;28;20627;-66
2022/05/31 08:33:29;;;;;;;2.50;2.40;;;39.40;35.80;;;;;;5032386;28;21196;-69
2022/05/31 08:35:56;;;;;;;2.07;1.93;;;40.40;34.90;;;;;;5049705;28;20619;-67
2022/05/31 08:38:31;;;;;;;6.53;2.70;;;39.30;33.90;;;;;;5048817;28;20830;-69
2022/05/31 08:41:27;;;;;;;3.03;2.77;;;37.70;35.00;;;;;;5036471;28;20782;-68
2022/05/31 08:44:13;;;;;;;2.57;2.43;;;36.10;36.00;;;;;;5035060;28;20639;-64
2022/05/31 08:47:01;;;;;;;2.93;2.30;;;36.50;36.40;;;;;;5049227;28;20650;-66
2022/05/31 08:53:14;;;;;;;2.43;2.33;;;36.70;36.80;;;;;;5030409;28;20654;-67
2022/05/31 08:58:50;;;;;;;4.57;2.67;;;36.70;36.80;;;;;;5050442;28;20675;-68
2022/05/31 09:01:23;;;;;;;2.97;2.73;;;37.20;36.40;;;;;;5049344;28;20986;-67
2022/05/31 09:04:02;;;;;;;3.07;2.70;;;38.40;35.60;;;;;;5048731;28;20641;-68
2022/05/31 09:06:42;;;;;;;3.43;3.13;;;39.70;35.10;;;;;;5047380;28;20734;-67
2022/05/31 09:09:14;;;;;;;5.53;3.27;;;40.10;34.50;;;;;;5046255;28;20706;-67
2022/05/31 09:11:54;;;;;;;3.50;3.20;;;40.10;34.20;;;;;;5031016;28;20608;-67
2022/05/31 09:15:01;;;;;;;3.30;3.00;;;40.30;34.20;;;;;;5029356;28;20715;-69
2022/05/31 09:18:00;;;;;;;3.10;2.83;;;38.20;34.60;;;;;;5048451;28;21122;-67
2022/05/31 09:20:31;;;;;;;3.00;2.80;;;38.90;34.30;;;;;;5048713;28;20655;-67
2022/05/31 09:22:58;;;;;;;7.70;2.67;;;37.80;34.20;;;;;;5049485;28;20604;-70
2022/05/31 09:25:27;;;;;;;3.00;2.50;;;39.40;34.20;;;;;;5039527;28;20730;-68
2022/05/31 09:27:54;;;;;;;2.93;2.73;;;40.70;33.60;;;;;;5049247;28;21270;-69
2022/05/31 09:30:41;;;;;;;2.90;2.80;;;42.80;32.90;;;;;;5049813;28;20624;-67
2022/05/31 09:33:27;;;;;;;2.43;2.43;;;44.20;32.30;;;;;;5048733;28;21033;-67
2022/05/31 09:36:11;;;;;;;2.73;2.33;;;45.60;31.70;;;;;;5030171;28;20624;-67
2022/05/31 09:39:06;;;;;;;2.57;2.27;;;47.10;31.00;;;;;;5033624;28;20682;-67
2022/05/31 09:42:06;;;;;;;2.73;2.50;;;48.00;30.60;;;;;;5048964;28;20620;-67
2022/05/31 09:44:40;;;;;;;2.60;2.40;;;48.10;30.00;;;;;;5028951;28;20644;-67
2022/05/31 09:47:16;;;;;;;2.60;2.00;;;48.70;29.90;;;;;;5031143;28;20632;-67
2022/05/31 09:49:48;;;;;;;2.87;2.57;;;48.70;29.70;;;;;;5049612;28;20626;-67
2022/05/31 09:52:21;;;;;;;2.97;2.40;;;48.60;29.70;;;;;;5049563;28;20618;-67
2022/05/31 09:58:11;;;;;;;2.10;2.00;;;46.70;29.80;;;;;;5048962;28;20676;-69
2022/05/31 10:01:00;;;;;;;2.00;1.90;;;46.30;29.90;;;;;;5044978;28;20619;-67
2022/05/31 10:03:33;;;;;;;2.23;2.17;;;43.40;29.80;;;;;;5049680;28;20641;-67
2022/05/31 10:06:06;;;;;;;2.00;1.90;;;40.70;31.20;;;;;;5032691;28;20734;-65
2022/05/31 10:08:34;;;;;;;1.93;1.93;;;41.30;31.30;;;;;;5032848;28;20650;-67
2022/05/31 10:11:10;;;;;;;2.50;2.13;;;41.60;32.40;;;;;;5040311;28;20635;-68
2022/05/31 10:13:43;;;;;;;2.37;2.23;;;41.70;31.60;;;;;;5049236;28;20616;-69
2022/05/31 10:16:25;;;;;;;2.50;2.40;;;41.20;32.00;;;;;;5043026;28;20704;-67
2022/05/31 10:18:57;;;;;;;2.27;2.07;;;40.10;32.40;;;;;;5049922;28;20771;-67
2022/05/31 10:21:32;;;;;;;2.60;2.40;;;36.70;33.40;;;;;;5053914;28;20729;-66
2022/05/31 10:24:18;;;;;;;2.07;1.97;;;35.50;34.30;;;;;;5053734;28;20607;-68
2022/05/31 10:27:02;;;;;;;2.13;2.03;;;34.00;35.20;;;;;;5052892;28;20718;-67
2022/05/31 10:29:33;;;;;;;2.30;2.00;;;32.60;36.40;;;;;;5051458;28;20635;-66
2022/05/31 10:32:19;;;;;;;1.93;1.83;;;31.40;37.30;;;;;;5053128;28;20628;-66
2022/05/31 10:34:47;;;;;;;5.03;1.90;;;30.20;38.10;;;;;;5053486;28;20611;-66
2022/05/31 10:37:25;;;;;;;;;;;28.90;38.40;;;;;;5032775;28;20853;-66
2022/05/31 10:40:06;;;;;;;2.58;2.03;;;28.20;38.90;;;;;;5049210;28;20739;-66
2022/05/31 10:42:34;;;;;;;;;;;27.70;40.20;;;;;;5051127;28;20053;-66
2022/05/31 10:45:04;;;;;;;;;;;27.40;40.90;;;;;;5053241;28;20685;-66
2022/05/31 10:47:30;;;;;;;;;;;26.40;41.10;;;;;;5050117;28;19920;-66
2022/05/31 10:49:57;;;;;;;;;;;25.90;42.10;;;;;;5046554;28;19927;-66
2022/05/31 10:52:58;;;;;;;2.27;2.07;;;25.60;42.70;;;;;;5052272;28;20298;-66
2022/05/31 10:56:02;;;;;;;1.93;1.77;;;24.90;43.10;;;;;;5038948;28;20670;-66
2022/05/31 10:58:53;;;;;;;2.03;1.37;;;24.90;43.20;;;;;;5040997;28;20693;-66
2022/05/31 11:01:33;;;;;;;5.70;1.97;;;24.70;43.80;;;;;;5042431;28;20663;-66
2022/05/31 11:04:18;;;;;;;2.43;2.30;;;24.50;44.10;;;;;;5014191;28;20628;-67
2022/05/31 11:07:00;;;;;;;2.30;2.20;;;24.20;44.40;;;;;;5038701;28;20774;-68
2022/05/31 11:12:23;;;;;;;1.70;1.60;;;24.40;44.90;;;;;;5034245;28;20632;-64
2022/05/31 11:15:10;;;;;;;1.97;1.87;;;24.40;44.10;;;;;;5039000;28;20650;-70
2022/05/31 11:18:14;;;;;;;1.77;1.67;;;24.70;44.40;;;;;;5032302;28;20680;-66
2022/05/31 11:21:15;;;;;;;2.10;2.00;;;24.90;44.40;;;;;;5051336;28;20722;-66
2022/05/31 11:24:06;;;;;;;1.10;1.07;;;24.80;44.30;;;;;;5052582;28;20643;-66
2022/05/31 11:26:49;;;;;;;2.10;1.80;;;24.50;44.30;;;;;;5052320;28;20624;-66
2022/05/31 11:30:04;;;;;;;1.80;1.70;;;24.30;44.20;;;;;;5052212;28;20620;-66
2022/05/31 11:33:02;;;;;;;1.53;1.43;;;24.10;44.30;;;;;;5041091;28;20624;-69
2022/05/31 11:35:50;;;;;;;28.13;16.80;;;24.10;43.90;;;;;;5049368;28;20616;-67
2022/05/31 11:38:25;;;;;;;11.40;8.43;;;24.10;43.10;;;;;;5051754;28;20667;-66
2022/05/31 11:41:02;;;;;;;3.57;3.27;;;24.10;43.00;;;;;;5039055;28;20623;-65
2022/05/31 11:43:34;;;;;;;4.40;1.73;;;24.20;43.50;;;;;;5049670;28;20619;-68
2022/05/31 11:46:23;;;;;;;1.73;1.63;;;24.20;42.70;;;;;;5046454;28;20616;-69
2022/05/31 11:49:08;;;;;;;1.63;1.53;;;24.30;42.50;;;;;;5051807;28;21208;-67
2022/05/31 11:52:13;;;;;;;1.90;1.80;;;24.30;43.30;;;;;;5051812;28;20635;-67
2022/05/31 11:55:28;;;;;;;2.80;1.73;;;24.30;43.30;;;;;;5051910;28;20658;-67
2022/05/31 11:58:09;;;;;;;1.83;1.73;;;24.70;41.70;;;;;;5051665;28;20671;-65
2022/05/31 12:00:46;;;;;;;2.07;1.97;;;25.10;41.90;;;;;;5051529;28;20976;-67
2022/05/31 12:03:23;;;;;;;1.80;1.70;;;25.30;41.50;;;;;;5051335;28;20611;-67